sensor_id;sensor_type;location;lat;lon;timestamp;temperature;humidity
71436;SHT31;59251;51.326;12.370;2022-07-12T00:00:50;16.01;85.70
71436;SHT31;59251;51.326;12.370;2022-07-12T00:03:15;16.04;85.62
71436;SHT31;59251;51.326;12.370;2022-07-12T00:05:41;15.96;86.13
71436;SHT31;59251;51.326;12.370;2022-07-12T00:08:06;15.91;86.05
71436;SHT31;59251;51.326;12.370;2022-07-12T00:10:32;15.93;86.00
71436;SHT31;59251;51.326;12.370;2022-07-12T00:12:58;15.94;85.94
71436;SHT31;59251;51.326;12.370;2022-07-12T00:15:24;15.91;86.03
71436;SHT31;59251;51.326;12.370;2022-07-12T00:17:50;15.93;86.12
71436;SHT31;59251;51.326;12.370;2022-07-12T00:20:15;15.86;86.38
71436;SHT31;59251;51.326;12.370;2022-07-12T00:22:41;15.77;86.54
71436;SHT31;59251;51.326;12.370;2022-07-12T00:25:07;15.77;86.63
71436;SHT31;59251;51.326;12.370;2022-07-12T00:27:32;15.73;86.97
71436;SHT31;59251;51.326;12.370;2022-07-12T00:29:58;15.67;87.00
71436;SHT31;59251;51.326;12.370;2022-07-12T00:32:23;15.69;87.00
71436;SHT31;59251;51.326;12.370;2022-07-12T00:34:49;15.66;87.12
71436;SHT31;59251;51.326;12.370;2022-07-12T00:37:14;15.63;87.28
71436;SHT31;59251;51.326;12.370;2022-07-12T00:39:39;15.52;87.66
71436;SHT31;59251;51.326;12.370;2022-07-12T00:42:05;15.39;88.47
71436;SHT31;59251;51.326;12.370;2022-07-12T00:44:30;15.34;88.68
71436;SHT31;59251;51.326;12.370;2022-07-12T00:46:59;15.28;89.32
71436;SHT31;59251;51.326;12.370;2022-07-12T00:49:24;15.35;88.83
71436;SHT31;59251;51.326;12.370;2022-07-12T00:51:50;15.45;88.46
71436;SHT31;59251;51.326;12.370;2022-07-12T00:54:16;15.48;88.09
71436;SHT31;59251;51.326;12.370;2022-07-12T00:56:42;15.65;87.58
71436;SHT31;59251;51.326;12.370;2022-07-12T00:59:08;15.65;87.46
71436;SHT31;59251;51.326;12.370;2022-07-12T01:01:34;15.58;87.61
71436;SHT31;59251;51.326;12.370;2022-07-12T01:04:00;15.56;87.77
71436;SHT31;59251;51.326;12.370;2022-07-12T01:06:26;15.53;88.01
71436;SHT31;59251;51.326;12.370;2022-07-12T01:08:52;15.45;88.13
71436;SHT31;59251;51.326;12.370;2022-07-12T01:11:18;15.39;88.21
71436;SHT31;59251;51.326;12.370;2022-07-12T01:13:44;15.36;88.46
71436;SHT31;59251;51.326;12.370;2022-07-12T01:16:10;15.34;88.56
71436;SHT31;59251;51.326;12.370;2022-07-12T01:18:38;15.36;88.43
71436;SHT31;59251;51.326;12.370;2022-07-12T01:21:07;15.36;88.43
71436;SHT31;59251;51.326;12.370;2022-07-12T01:23:34;15.32;88.53
71436;SHT31;59251;51.326;12.370;2022-07-12T01:26:00;15.29;88.75
71436;SHT31;59251;51.326;12.370;2022-07-12T01:28:26;15.27;88.82
71436;SHT31;59251;51.326;12.370;2022-07-12T01:30:51;15.20;89.04
71436;SHT31;59251;51.326;12.370;2022-07-12T01:33:18;15.08;89.61
71436;SHT31;59251;51.326;12.370;2022-07-12T01:35:44;15.10;89.31
71436;SHT31;59251;51.326;12.370;2022-07-12T01:38:10;15.05;89.50
71436;SHT31;59251;51.326;12.370;2022-07-12T01:40:36;15.05;89.45
71436;SHT31;59251;51.326;12.370;2022-07-12T01:43:02;14.97;89.71
71436;SHT31;59251;51.326;12.370;2022-07-12T01:45:27;14.93;89.89
71436;SHT31;59251;51.326;12.370;2022-07-12T01:47:53;14.98;89.59
71436;SHT31;59251;51.326;12.370;2022-07-12T01:50:19;14.97;89.62
71436;SHT31;59251;51.326;12.370;2022-07-12T01:52:44;14.88;89.98
71436;SHT31;59251;51.326;12.370;2022-07-12T01:55:11;14.83;90.43
71436;SHT31;59251;51.326;12.370;2022-07-12T01:57:38;14.64;91.28
71436;SHT31;59251;51.326;12.370;2022-07-12T02:00:06;14.64;91.16
71436;SHT31;59251;51.326;12.370;2022-07-12T02:02:32;14.60;91.71
71436;SHT31;59251;51.326;12.370;2022-07-12T02:05:01;14.57;91.93
71436;SHT31;59251;51.326;12.370;2022-07-12T02:07:26;14.55;91.82
71436;SHT31;59251;51.326;12.370;2022-07-12T02:09:52;14.57;91.94
71436;SHT31;59251;51.326;12.370;2022-07-12T02:12:18;14.52;92.04
71436;SHT31;59251;51.326;12.370;2022-07-12T02:14:44;14.55;91.88
71436;SHT31;59251;51.326;12.370;2022-07-12T02:17:09;14.50;91.99
71436;SHT31;59251;51.326;12.370;2022-07-12T02:19:34;14.57;91.81
71436;SHT31;59251;51.326;12.370;2022-07-12T02:22:00;14.56;91.97
71436;SHT31;59251;51.326;12.370;2022-07-12T02:24:25;14.62;91.69
71436;SHT31;59251;51.326;12.370;2022-07-12T02:26:51;14.42;92.46
71436;SHT31;59251;51.326;12.370;2022-07-12T02:29:16;14.49;92.33
71436;SHT31;59251;51.326;12.370;2022-07-12T02:31:42;14.45;92.54
71436;SHT31;59251;51.326;12.370;2022-07-12T02:34:07;14.45;92.55
71436;SHT31;59251;51.326;12.370;2022-07-12T02:36:33;14.36;92.85
71436;SHT31;59251;51.326;12.370;2022-07-12T02:38:59;14.35;92.92
71436;SHT31;59251;51.326;12.370;2022-07-12T02:41:32;14.35;92.98
71436;SHT31;59251;51.326;12.370;2022-07-12T02:43:59;14.30;92.98
71436;SHT31;59251;51.326;12.370;2022-07-12T02:46:25;14.28;93.11
71436;SHT31;59251;51.326;12.370;2022-07-12T02:48:51;14.24;93.24
71436;SHT31;59251;51.326;12.370;2022-07-12T02:51:17;14.33;92.98
71436;SHT31;59251;51.326;12.370;2022-07-12T02:53:43;14.30;93.01
71436;SHT31;59251;51.326;12.370;2022-07-12T02:56:09;14.33;92.98
71436;SHT31;59251;51.326;12.370;2022-07-12T02:58:35;14.33;93.04
71436;SHT31;59251;51.326;12.370;2022-07-12T03:01:01;14.33;92.97
71436;SHT31;59251;51.326;12.370;2022-07-12T03:03:26;14.29;92.98
71436;SHT31;59251;51.326;12.370;2022-07-12T03:05:51;14.24;93.45
71436;SHT31;59251;51.326;12.370;2022-07-12T03:08:17;14.25;93.29
71436;SHT31;59251;51.326;12.370;2022-07-12T03:10:42;14.26;93.16
71436;SHT31;59251;51.326;12.370;2022-07-12T03:13:08;14.22;93.35
71436;SHT31;59251;51.326;12.370;2022-07-12T03:15:34;14.25;93.24
71436;SHT31;59251;51.326;12.370;2022-07-12T03:18:00;14.28;92.93
71436;SHT31;59251;51.326;12.370;2022-07-12T03:20:27;14.29;93.34
71436;SHT31;59251;51.326;12.370;2022-07-12T03:22:53;14.28;92.86
71436;SHT31;59251;51.326;12.370;2022-07-12T03:25:19;14.39;92.36
71436;SHT31;59251;51.326;12.370;2022-07-12T03:27:45;14.32;92.69
71436;SHT31;59251;51.326;12.370;2022-07-12T03:30:12;14.29;93.33
71436;SHT31;59251;51.326;12.370;2022-07-12T03:32:37;14.15;93.62
71436;SHT31;59251;51.326;12.370;2022-07-12T03:35:03;14.08;93.78
71436;SHT31;59251;51.326;12.370;2022-07-12T03:40:08;14.06;93.85
71436;SHT31;59251;51.326;12.370;2022-07-12T03:42:34;14.05;93.88
71436;SHT31;59251;51.326;12.370;2022-07-12T03:45:00;14.11;93.71
71436;SHT31;59251;51.326;12.370;2022-07-12T03:47:26;14.05;93.97
71436;SHT31;59251;51.326;12.370;2022-07-12T03:49:51;14.04;93.86
71436;SHT31;59251;51.326;12.370;2022-07-12T03:52:17;14.00;94.06
71436;SHT31;59251;51.326;12.370;2022-07-12T03:54:42;14.02;94.06
71436;SHT31;59251;51.326;12.370;2022-07-12T03:57:07;14.06;93.66
71436;SHT31;59251;51.326;12.370;2022-07-12T03:59:39;14.08;93.73
71436;SHT31;59251;51.326;12.370;2022-07-12T04:02:05;14.11;93.66
71436;SHT31;59251;51.326;12.370;2022-07-12T04:04:30;14.16;93.41
71436;SHT31;59251;51.326;12.370;2022-07-12T04:06:56;14.25;93.08
71436;SHT31;59251;51.326;12.370;2022-07-12T04:09:21;14.25;93.23
71436;SHT31;59251;51.326;12.370;2022-07-12T04:11:47;14.42;92.53
71436;SHT31;59251;51.326;12.370;2022-07-12T04:14:12;14.56;91.75
71436;SHT31;59251;51.326;12.370;2022-07-12T04:16:38;14.56;91.93
71436;SHT31;59251;51.326;12.370;2022-07-12T04:19:03;14.72;91.12
71436;SHT31;59251;51.326;12.370;2022-07-12T04:21:31;14.62;91.51
71436;SHT31;59251;51.326;12.370;2022-07-12T04:23:56;14.80;90.70
71436;SHT31;59251;51.326;12.370;2022-07-12T04:26:21;14.57;91.20
71436;SHT31;59251;51.326;12.370;2022-07-12T04:28:47;14.87;90.66
71436;SHT31;59251;51.326;12.370;2022-07-12T04:31:12;14.80;90.72
71436;SHT31;59251;51.326;12.370;2022-07-12T04:33:38;14.88;90.39
71436;SHT31;59251;51.326;12.370;2022-07-12T04:36:03;14.88;90.48
71436;SHT31;59251;51.326;12.370;2022-07-12T04:38:29;14.95;89.80
71436;SHT31;59251;51.326;12.370;2022-07-12T04:40:54;15.02;89.61
71436;SHT31;59251;51.326;12.370;2022-07-12T04:43:19;15.08;89.50
71436;SHT31;59251;51.326;12.370;2022-07-12T04:45:45;15.55;87.80
71436;SHT31;59251;51.326;12.370;2022-07-12T04:48:11;15.41;87.89
71436;SHT31;59251;51.326;12.370;2022-07-12T04:50:36;15.24;88.70
71436;SHT31;59251;51.326;12.370;2022-07-12T04:53:02;15.43;88.27
71436;SHT31;59251;51.326;12.370;2022-07-12T04:55:27;15.69;86.91
71436;SHT31;59251;51.326;12.370;2022-07-12T04:57:53;15.87;85.94
71436;SHT31;59251;51.326;12.370;2022-07-12T05:00:18;16.00;85.30
71436;SHT31;59251;51.326;12.370;2022-07-12T05:02:44;16.22;85.18
71436;SHT31;59251;51.326;12.370;2022-07-12T05:05:09;15.85;86.29
71436;SHT31;59251;51.326;12.370;2022-07-12T05:07:35;15.55;87.31
71436;SHT31;59251;51.326;12.370;2022-07-12T05:10:00;15.42;87.78
71436;SHT31;59251;51.326;12.370;2022-07-12T05:12:25;16.08;85.86
71436;SHT31;59251;51.326;12.370;2022-07-12T05:14:51;15.89;86.25
71436;SHT31;59251;51.326;12.370;2022-07-12T05:17:16;16.07;85.17
71436;SHT31;59251;51.326;12.370;2022-07-12T05:19:41;16.03;86.26
71436;SHT31;59251;51.326;12.370;2022-07-12T05:22:07;16.32;84.78
71436;SHT31;59251;51.326;12.370;2022-07-12T05:24:32;16.47;84.31
71436;SHT31;59251;51.326;12.370;2022-07-12T05:26:58;16.52;83.69
71436;SHT31;59251;51.326;12.370;2022-07-12T05:29:23;16.36;84.72
71436;SHT31;59251;51.326;12.370;2022-07-12T05:39:36;17.42;80.64
71436;SHT31;59251;51.326;12.370;2022-07-12T05:42:02;17.14;80.99
71436;SHT31;59251;51.326;12.370;2022-07-12T05:44:27;17.16;82.07
71436;SHT31;59251;51.326;12.370;2022-07-12T05:46:53;17.34;80.99
71436;SHT31;59251;51.326;12.370;2022-07-12T05:49:18;17.10;81.01
71436;SHT31;59251;51.326;12.370;2022-07-12T05:51:44;17.20;80.81
71436;SHT31;59251;51.326;12.370;2022-07-12T05:54:27;17.62;79.39
71436;SHT31;59251;51.326;12.370;2022-07-12T05:56:53;17.48;79.43
71436;SHT31;59251;51.326;12.370;2022-07-12T05:59:18;17.68;78.90
71436;SHT31;59251;51.326;12.370;2022-07-12T06:01:44;17.47;79.85
71436;SHT31;59251;51.326;12.370;2022-07-12T06:04:10;17.38;79.92
71436;SHT31;59251;51.326;12.370;2022-07-12T06:06:35;17.35;80.16
71436;SHT31;59251;51.326;12.370;2022-07-12T06:09:00;17.44;80.40
71436;SHT31;59251;51.326;12.370;2022-07-12T06:11:26;17.12;81.47
71436;SHT31;59251;51.326;12.370;2022-07-12T06:13:52;17.69;79.22
71436;SHT31;59251;51.326;12.370;2022-07-12T06:16:17;17.60;79.51
71436;SHT31;59251;51.326;12.370;2022-07-12T06:18:43;17.38;80.32
71436;SHT31;59251;51.326;12.370;2022-07-12T06:21:08;17.83;78.65
71436;SHT31;59251;51.326;12.370;2022-07-12T06:23:34;17.60;78.84
71436;SHT31;59251;51.326;12.370;2022-07-12T06:25:59;17.99;77.40
71436;SHT31;59251;51.326;12.370;2022-07-12T06:28:24;17.78;76.66
71436;SHT31;59251;51.326;12.370;2022-07-12T06:30:50;18.13;76.21
71436;SHT31;59251;51.326;12.370;2022-07-12T06:33:15;18.29;75.60
71436;SHT31;59251;51.326;12.370;2022-07-12T06:35:41;18.16;75.37
71436;SHT31;59251;51.326;12.370;2022-07-12T06:38:06;18.25;75.63
71436;SHT31;59251;51.326;12.370;2022-07-12T06:40:31;18.22;75.25
71436;SHT31;59251;51.326;12.370;2022-07-12T06:42:57;18.29;75.30
71436;SHT31;59251;51.326;12.370;2022-07-12T06:45:23;18.30;75.43
71436;SHT31;59251;51.326;12.370;2022-07-12T06:47:49;18.48;74.26
71436;SHT31;59251;51.326;12.370;2022-07-12T06:50:14;18.67;73.53
71436;SHT31;59251;51.326;12.370;2022-07-12T06:52:39;18.48;74.18
71436;SHT31;59251;51.326;12.370;2022-07-12T06:55:05;18.71;72.97
71436;SHT31;59251;51.326;12.370;2022-07-12T06:57:31;18.58;73.68
71436;SHT31;59251;51.326;12.370;2022-07-12T06:59:58;18.48;72.50
71436;SHT31;59251;51.326;12.370;2022-07-12T07:02:24;18.76;72.01
71436;SHT31;59251;51.326;12.370;2022-07-12T07:04:49;18.22;72.91
71436;SHT31;59251;51.326;12.370;2022-07-12T07:07:15;18.51;72.99
71436;SHT31;59251;51.326;12.370;2022-07-12T07:09:40;18.63;72.18
71436;SHT31;59251;51.326;12.370;2022-07-12T07:12:09;18.87;71.31
71436;SHT31;59251;51.326;12.370;2022-07-12T07:14:35;18.94;70.86
71436;SHT31;59251;51.326;12.370;2022-07-12T07:17:01;19.24;71.37
71436;SHT31;59251;51.326;12.370;2022-07-12T07:19:26;19.22;70.19
71436;SHT31;59251;51.326;12.370;2022-07-12T07:21:55;19.30;69.87
71436;SHT31;59251;51.326;12.370;2022-07-12T07:24:21;19.46;68.80
71436;SHT31;59251;51.326;12.370;2022-07-12T07:26:47;19.57;68.68
71436;SHT31;59251;51.326;12.370;2022-07-12T07:29:12;19.29;67.37
71436;SHT31;59251;51.326;12.370;2022-07-12T07:31:56;19.42;69.16
71436;SHT31;59251;51.326;12.370;2022-07-12T07:34:22;19.64;69.41
71436;SHT31;59251;51.326;12.370;2022-07-12T07:36:49;19.46;69.31
71436;SHT31;59251;51.326;12.370;2022-07-12T07:39:15;19.74;68.61
71436;SHT31;59251;51.326;12.370;2022-07-12T07:41:40;19.82;68.82
71436;SHT31;59251;51.326;12.370;2022-07-12T07:44:05;19.81;68.93
71436;SHT31;59251;51.326;12.370;2022-07-12T07:46:31;20.11;68.31
71436;SHT31;59251;51.326;12.370;2022-07-12T07:48:56;19.82;68.09
71436;SHT31;59251;51.326;12.370;2022-07-12T07:51:22;19.74;68.72
71436;SHT31;59251;51.326;12.370;2022-07-12T07:53:47;20.18;67.36
71436;SHT31;59251;51.326;12.370;2022-07-12T07:56:13;20.29;66.79
71436;SHT31;59251;51.326;12.370;2022-07-12T07:58:38;20.11;66.55
71436;SHT31;59251;51.326;12.370;2022-07-12T08:01:04;20.53;65.49
71436;SHT31;59251;51.326;12.370;2022-07-12T08:03:29;20.29;66.55
71436;SHT31;59251;51.326;12.370;2022-07-12T08:05:55;20.66;63.58
71436;SHT31;59251;51.326;12.370;2022-07-12T08:08:23;20.66;61.88
71436;SHT31;59251;51.326;12.370;2022-07-12T08:10:50;20.63;63.23
71436;SHT31;59251;51.326;12.370;2022-07-12T08:13:16;20.53;63.57
71436;SHT31;59251;51.326;12.370;2022-07-12T08:15:41;20.69;62.90
71436;SHT31;59251;51.326;12.370;2022-07-12T08:18:07;21.04;61.97
71436;SHT31;59251;51.326;12.370;2022-07-12T08:20:33;21.05;62.52
71436;SHT31;59251;51.326;12.370;2022-07-12T08:22:58;21.20;62.25
71436;SHT31;59251;51.326;12.370;2022-07-12T08:25:24;21.10;62.56
71436;SHT31;59251;51.326;12.370;2022-07-12T08:27:50;21.24;60.06
71436;SHT31;59251;51.326;12.370;2022-07-12T08:30:16;21.21;58.97
71436;SHT31;59251;51.326;12.370;2022-07-12T08:32:45;21.37;57.95
71436;SHT31;59251;51.326;12.370;2022-07-12T08:35:11;21.24;57.43
71436;SHT31;59251;51.326;12.370;2022-07-12T08:37:37;21.28;57.92
71436;SHT31;59251;51.326;12.370;2022-07-12T08:40:03;21.63;56.69
71436;SHT31;59251;51.326;12.370;2022-07-12T08:42:31;21.55;57.37
71436;SHT31;59251;51.326;12.370;2022-07-12T08:44:57;21.69;55.82
71436;SHT31;59251;51.326;12.370;2022-07-12T08:47:23;21.55;54.75
71436;SHT31;59251;51.326;12.370;2022-07-12T08:50:20;21.25;55.65
71436;SHT31;59251;51.326;12.370;2022-07-12T08:52:47;21.28;54.99
71436;SHT31;59251;51.326;12.370;2022-07-12T08:55:30;21.27;56.03
71436;SHT31;59251;51.326;12.370;2022-07-12T08:57:58;21.67;55.39
71436;SHT31;59251;51.326;12.370;2022-07-12T09:00:25;21.88;54.46
71436;SHT31;59251;51.326;12.370;2022-07-12T09:02:58;21.86;53.55
71436;SHT31;59251;51.326;12.370;2022-07-12T09:05:25;22.27;51.96
71436;SHT31;59251;51.326;12.370;2022-07-12T09:10:57;22.43;52.30
71436;SHT31;59251;51.326;12.370;2022-07-12T09:16:17;22.37;52.92
71436;SHT31;59251;51.326;12.370;2022-07-12T09:18:44;22.81;51.94
71436;SHT31;59251;51.326;12.370;2022-07-12T09:21:10;22.96;50.57
71436;SHT31;59251;51.326;12.370;2022-07-12T09:24:12;22.18;51.80
71436;SHT31;59251;51.326;12.370;2022-07-12T09:26:37;21.72;53.55
71436;SHT31;59251;51.326;12.370;2022-07-12T09:29:07;22.59;51.45
71436;SHT31;59251;51.326;12.370;2022-07-12T09:31:42;22.75;50.27
71436;SHT31;59251;51.326;12.370;2022-07-12T09:34:28;23.26;48.49
71436;SHT31;59251;51.326;12.370;2022-07-12T09:37:13;23.26;48.08
71436;SHT31;59251;51.326;12.370;2022-07-12T09:39:38;23.14;48.18
71436;SHT31;59251;51.326;12.370;2022-07-12T09:42:07;22.96;49.10
71436;SHT31;59251;51.326;12.370;2022-07-12T09:44:33;22.49;49.21
71436;SHT31;59251;51.326;12.370;2022-07-12T09:46:59;23.14;48.51
71436;SHT31;59251;51.326;12.370;2022-07-12T09:49:26;22.82;48.76
71436;SHT31;59251;51.326;12.370;2022-07-12T09:51:55;23.02;48.46
71436;SHT31;59251;51.326;12.370;2022-07-12T09:54:25;23.51;46.49
71436;SHT31;59251;51.326;12.370;2022-07-12T09:56:53;23.71;46.93
71436;SHT31;59251;51.326;12.370;2022-07-12T09:59:23;24.10;46.17
71436;SHT31;59251;51.326;12.370;2022-07-12T10:01:49;23.91;44.75
71436;SHT31;59251;51.326;12.370;2022-07-12T10:04:20;23.30;44.81
71436;SHT31;59251;51.326;12.370;2022-07-12T10:06:46;23.19;44.78
71436;SHT31;59251;51.326;12.370;2022-07-12T10:09:13;23.27;45.23
71436;SHT31;59251;51.326;12.370;2022-07-12T10:11:39;24.08;44.85
71436;SHT31;59251;51.326;12.370;2022-07-12T10:14:05;23.94;46.20
71436;SHT31;59251;51.326;12.370;2022-07-12T10:16:33;24.08;46.19
71436;SHT31;59251;51.326;12.370;2022-07-12T10:21:50;23.30;47.28
71436;SHT31;59251;51.326;12.370;2022-07-12T10:29:41;24.16;43.80
71436;SHT31;59251;51.326;12.370;2022-07-12T10:32:35;24.81;43.63
71436;SHT31;59251;51.326;12.370;2022-07-12T10:38:13;24.02;45.23
71436;SHT31;59251;51.326;12.370;2022-07-12T10:40:40;24.23;45.03
71436;SHT31;59251;51.326;12.370;2022-07-12T10:45:36;24.23;44.62
71436;SHT31;59251;51.326;12.370;2022-07-12T10:48:08;24.40;44.20
71436;SHT31;59251;51.326;12.370;2022-07-12T10:53:23;23.88;45.53
71436;SHT31;59251;51.326;12.370;2022-07-12T11:01:02;25.08;42.10
71436;SHT31;59251;51.326;12.370;2022-07-12T11:03:37;25.19;42.91
71436;SHT31;59251;51.326;12.370;2022-07-12T11:06:03;25.11;42.34
71436;SHT31;59251;51.326;12.370;2022-07-12T11:08:31;24.91;42.09
71436;SHT31;59251;51.326;12.370;2022-07-12T11:10:58;24.13;43.57
71436;SHT31;59251;51.326;12.370;2022-07-12T11:13:24;24.37;43.60
71436;SHT31;59251;51.326;12.370;2022-07-12T11:16:00;24.18;44.64
71436;SHT31;59251;51.326;12.370;2022-07-12T11:18:33;24.99;42.72
71436;SHT31;59251;51.326;12.370;2022-07-12T11:21:01;24.88;43.03
71436;SHT31;59251;51.326;12.370;2022-07-12T11:23:28;25.33;42.23
71436;SHT31;59251;51.326;12.370;2022-07-12T11:26:02;25.77;40.37
71436;SHT31;59251;51.326;12.370;2022-07-12T11:28:29;25.32;40.94
71436;SHT31;59251;51.326;12.370;2022-07-12T11:33:31;25.87;39.25
71436;SHT31;59251;51.326;12.370;2022-07-12T11:36:02;26.37;39.06
71436;SHT31;59251;51.326;12.370;2022-07-12T11:38:28;25.66;40.56
71436;SHT31;59251;51.326;12.370;2022-07-12T11:40:55;26.24;39.91
71436;SHT31;59251;51.326;12.370;2022-07-12T11:43:24;25.76;39.83
71436;SHT31;59251;51.326;12.370;2022-07-12T11:45:51;26.42;37.98
71436;SHT31;59251;51.326;12.370;2022-07-12T11:48:18;27.30;36.58
71436;SHT31;59251;51.326;12.370;2022-07-12T11:50:44;27.85;36.25
71436;SHT31;59251;51.326;12.370;2022-07-12T11:53:28;27.77;36.82
71436;SHT31;59251;51.326;12.370;2022-07-12T11:55:56;27.13;37.32
71436;SHT31;59251;51.326;12.370;2022-07-12T11:58:23;25.69;40.35
71436;SHT31;59251;51.326;12.370;2022-07-12T12:00:49;25.93;40.08
71436;SHT31;59251;51.326;12.370;2022-07-12T12:03:16;26.28;39.06
71436;SHT31;59251;51.326;12.370;2022-07-12T12:05:46;27.18;36.42
71436;SHT31;59251;51.326;12.370;2022-07-12T12:08:13;27.80;35.88
71436;SHT31;59251;51.326;12.370;2022-07-12T12:10:43;28.47;34.87
71436;SHT31;59251;51.326;12.370;2022-07-12T12:13:17;27.08;36.28
71436;SHT31;59251;51.326;12.370;2022-07-12T12:15:52;29.04;33.72
71436;SHT31;59251;51.326;12.370;2022-07-12T12:18:28;28.53;33.53
71436;SHT31;59251;51.326;12.370;2022-07-12T12:23:30;29.26;32.71
71436;SHT31;59251;51.326;12.370;2022-07-12T12:26:15;27.98;34.50
71436;SHT31;59251;51.326;12.370;2022-07-12T12:31:08;28.85;33.98
71436;SHT31;59251;51.326;12.370;2022-07-12T12:33:38;30.07;32.13
71436;SHT31;59251;51.326;12.370;2022-07-12T12:38:40;29.39;32.66
71436;SHT31;59251;51.326;12.370;2022-07-12T12:41:08;29.96;32.13
71436;SHT31;59251;51.326;12.370;2022-07-12T12:43:33;30.80;30.03
71436;SHT31;59251;51.326;12.370;2022-07-12T12:45:59;30.31;31.11
71436;SHT31;59251;51.326;12.370;2022-07-12T12:48:26;30.75;31.41
71436;SHT31;59251;51.326;12.370;2022-07-12T12:50:54;30.82;30.74
71436;SHT31;59251;51.326;12.370;2022-07-12T12:53:24;30.28;32.23
71436;SHT31;59251;51.326;12.370;2022-07-12T12:55:51;29.63;32.58
71436;SHT31;59251;51.326;12.370;2022-07-12T12:58:18;29.39;32.89
71436;SHT31;59251;51.326;12.370;2022-07-12T13:00:46;30.45;30.29
71436;SHT31;59251;51.326;12.370;2022-07-12T13:03:14;31.82;28.61
71436;SHT31;59251;51.326;12.370;2022-07-12T13:05:40;30.25;31.12
71436;SHT31;59251;51.326;12.370;2022-07-12T13:08:13;31.49;29.89
71436;SHT31;59251;51.326;12.370;2022-07-12T13:10:40;31.92;29.23
71436;SHT31;59251;51.326;12.370;2022-07-12T13:13:07;30.33;31.45
71436;SHT31;59251;51.326;12.370;2022-07-12T13:15:33;31.45;30.25
71436;SHT31;59251;51.326;12.370;2022-07-12T13:17:59;31.57;28.71
71436;SHT31;59251;51.326;12.370;2022-07-12T13:20:26;32.64;29.20
71436;SHT31;59251;51.326;12.370;2022-07-12T13:22:54;31.24;30.13
71436;SHT31;59251;51.326;12.370;2022-07-12T13:25:21;30.59;31.24
71436;SHT31;59251;51.326;12.370;2022-07-12T13:27:46;29.83;32.01
71436;SHT31;59251;51.326;12.370;2022-07-12T13:30:14;29.97;31.04
71436;SHT31;59251;51.326;12.370;2022-07-12T13:32:41;32.77;28.85
71436;SHT31;59251;51.326;12.370;2022-07-12T13:35:09;31.13;30.55
71436;SHT31;59251;51.326;12.370;2022-07-12T13:37:36;32.92;27.38
71436;SHT31;59251;51.326;12.370;2022-07-12T13:40:03;31.14;29.87
71436;SHT31;59251;51.326;12.370;2022-07-12T13:42:52;31.39;29.85
71436;SHT31;59251;51.326;12.370;2022-07-12T13:45:23;30.39;30.31
71436;SHT31;59251;51.326;12.370;2022-07-12T13:47:51;31.28;28.26
71436;SHT31;59251;51.326;12.370;2022-07-12T13:50:18;33.59;26.37
71436;SHT31;59251;51.326;12.370;2022-07-12T13:52:45;33.84;26.64
71436;SHT31;59251;51.326;12.370;2022-07-12T13:55:12;34.22;26.46
71436;SHT31;59251;51.326;12.370;2022-07-12T13:57:39;33.54;26.90
71436;SHT31;59251;51.326;12.370;2022-07-12T14:00:06;31.78;28.92
71436;SHT31;59251;51.326;12.370;2022-07-12T14:02:35;32.75;27.89
71436;SHT31;59251;51.326;12.370;2022-07-12T14:05:02;31.27;29.57
71436;SHT31;59251;51.326;12.370;2022-07-12T14:07:27;31.35;30.00
71436;SHT31;59251;51.326;12.370;2022-07-12T14:09:52;32.44;27.65
71436;SHT31;59251;51.326;12.370;2022-07-12T14:12:18;34.24;26.19
71436;SHT31;59251;51.326;12.370;2022-07-12T14:14:44;30.33;30.29
71436;SHT31;59251;51.326;12.370;2022-07-12T14:17:28;31.35;29.74
71436;SHT31;59251;51.326;12.370;2022-07-12T14:19:53;33.05;27.36
71436;SHT31;59251;51.326;12.370;2022-07-12T14:22:19;33.59;26.73
71436;SHT31;59251;51.326;12.370;2022-07-12T14:24:45;32.51;28.03
71436;SHT31;59251;51.326;12.370;2022-07-12T14:27:10;34.57;25.86
71436;SHT31;59251;51.326;12.370;2022-07-12T14:29:36;32.82;27.20
71436;SHT31;59251;51.326;12.370;2022-07-12T14:32:01;32.06;29.14
71436;SHT31;59251;51.326;12.370;2022-07-12T14:34:26;32.78;27.89
71436;SHT31;59251;51.326;12.370;2022-07-12T14:36:52;34.05;26.41
71436;SHT31;59251;51.326;12.370;2022-07-12T14:39:17;34.35;25.82
71436;SHT31;59251;51.326;12.370;2022-07-12T14:41:43;35.38;24.46
71436;SHT31;59251;51.326;12.370;2022-07-12T14:44:08;31.88;28.23
71436;SHT31;59251;51.326;12.370;2022-07-12T14:46:34;32.21;28.98
71436;SHT31;59251;51.326;12.370;2022-07-12T14:48:59;34.44;26.20
71436;SHT31;59251;51.326;12.370;2022-07-12T14:51:25;35.21;25.20
71436;SHT31;59251;51.326;12.370;2022-07-12T14:53:51;34.65;25.84
71436;SHT31;59251;51.326;12.370;2022-07-12T14:56:19;34.11;25.51
71436;SHT31;59251;51.326;12.370;2022-07-12T14:58:45;33.54;27.23
71436;SHT31;59251;51.326;12.370;2022-07-12T15:01:10;35.41;24.25
71436;SHT31;59251;51.326;12.370;2022-07-12T15:03:36;32.48;27.77
71436;SHT31;59251;51.326;12.370;2022-07-12T15:06:01;34.69;25.83
71436;SHT31;59251;51.326;12.370;2022-07-12T15:08:27;34.41;25.71
71436;SHT31;59251;51.326;12.370;2022-07-12T15:10:52;33.91;25.92
71436;SHT31;59251;51.326;12.370;2022-07-12T15:13:18;33.77;25.77
71436;SHT31;59251;51.326;12.370;2022-07-12T15:15:43;36.43;24.03
71436;SHT31;59251;51.326;12.370;2022-07-12T15:18:09;34.85;25.49
71436;SHT31;59251;51.326;12.370;2022-07-12T15:20:35;31.01;28.89
71436;SHT31;59251;51.326;12.370;2022-07-12T15:23:01;35.64;24.62
71436;SHT31;59251;51.326;12.370;2022-07-12T15:25:28;35.14;25.32
71436;SHT31;59251;51.326;12.370;2022-07-12T15:27:53;35.51;24.82
71436;SHT31;59251;51.326;12.370;2022-07-12T15:30:19;34.21;25.84
71436;SHT31;59251;51.326;12.370;2022-07-12T15:32:44;36.33;24.05
71436;SHT31;59251;51.326;12.370;2022-07-12T15:35:10;33.70;27.20
71436;SHT31;59251;51.326;12.370;2022-07-12T15:37:35;33.66;25.95
71436;SHT31;59251;51.326;12.370;2022-07-12T15:40:01;32.78;26.89
71436;SHT31;59251;51.326;12.370;2022-07-12T15:42:27;34.39;25.85
71436;SHT31;59251;51.326;12.370;2022-07-12T15:44:53;35.45;24.20
71436;SHT31;59251;51.326;12.370;2022-07-12T15:47:18;35.98;23.78
71436;SHT31;59251;51.326;12.370;2022-07-12T15:49:44;35.07;25.02
71436;SHT31;59251;51.326;12.370;2022-07-12T15:52:09;32.96;26.54
71436;SHT31;59251;51.326;12.370;2022-07-12T15:54:53;35.37;24.82
71436;SHT31;59251;51.326;12.370;2022-07-12T15:57:19;32.77;26.46
71436;SHT31;59251;51.326;12.370;2022-07-12T15:59:45;35.08;25.29
71436;SHT31;59251;51.326;12.370;2022-07-12T16:02:10;34.72;25.36